sensor_id;sensor_type;location;lat;lon;timestamp;temperature;humidity
71188;DHT22;58893;53.130;8.158;2023-02-15T00:02:16;6.00;77.40
71188;DHT22;58893;53.130;8.158;2023-02-15T00:04:42;6.00;77.30
71188;DHT22;58893;53.130;8.158;2023-02-15T00:07:17;6.00;77.30
71188;DHT22;58893;53.130;8.158;2023-02-15T00:09:45;5.90;85.00
71188;DHT22;58893;53.130;8.158;2023-02-15T00:12:11;5.90;77.40
71188;DHT22;58893;53.130;8.158;2023-02-15T00:14:37;5.90;77.60
71188;DHT22;58893;53.130;8.158;2023-02-15T00:17:02;5.90;77.90
71188;DHT22;58893;53.130;8.158;2023-02-15T00:19:28;5.90;78.10
71188;DHT22;58893;53.130;8.158;2023-02-15T00:21:54;5.90;78.50
71188;DHT22;58893;53.130;8.158;2023-02-15T00:24:20;5.80;79.50
71188;DHT22;58893;53.130;8.158;2023-02-15T00:26:47;5.80;80.20
71188;DHT22;58893;53.130;8.158;2023-02-15T00:29:14;5.80;80.80
71188;DHT22;58893;53.130;8.158;2023-02-15T00:31:40;5.80;81.50
71188;DHT22;58893;53.130;8.158;2023-02-15T00:34:07;5.70;81.20
71188;DHT22;58893;53.130;8.158;2023-02-15T00:36:35;5.80;80.90
71188;DHT22;58893;53.130;8.158;2023-02-15T00:39:01;5.70;80.70
71188;DHT22;58893;53.130;8.158;2023-02-15T00:41:27;5.70;80.60
71188;DHT22;58893;53.130;8.158;2023-02-15T00:43:53;5.70;80.60
71188;DHT22;58893;53.130;8.158;2023-02-15T00:46:18;5.70;80.80
71188;DHT22;58893;53.130;8.158;2023-02-15T00:48:44;5.70;81.00
71188;DHT22;58893;53.130;8.158;2023-02-15T00:51:09;5.70;81.20
71188;DHT22;58893;53.130;8.158;2023-02-15T00:53:35;5.70;81.90
71188;DHT22;58893;53.130;8.158;2023-02-15T00:56:01;5.70;81.30
71188;DHT22;58893;53.130;8.158;2023-02-15T00:58:26;5.60;81.20
71188;DHT22;58893;53.130;8.158;2023-02-15T01:00:52;5.70;81.30
71188;DHT22;58893;53.130;8.158;2023-02-15T01:03:19;5.60;81.00
71188;DHT22;58893;53.130;8.158;2023-02-15T01:05:47;5.60;81.20
71188;DHT22;58893;53.130;8.158;2023-02-15T01:08:13;5.60;83.20
71188;DHT22;58893;53.130;8.158;2023-02-15T01:10:39;5.60;82.60
71188;DHT22;58893;53.130;8.158;2023-02-15T01:13:05;5.60;83.10
71188;DHT22;58893;53.130;8.158;2023-02-15T01:15:31;5.60;83.40
71188;DHT22;58893;53.130;8.158;2023-02-15T01:17:59;5.70;83.50
71188;DHT22;58893;53.130;8.158;2023-02-15T01:20:26;5.70;83.10
71188;DHT22;58893;53.130;8.158;2023-02-15T01:22:54;5.60;82.70
71188;DHT22;58893;53.130;8.158;2023-02-15T01:25:21;5.70;82.50
71188;DHT22;58893;53.130;8.158;2023-02-15T01:27:47;5.70;82.20
71188;DHT22;58893;53.130;8.158;2023-02-15T01:30:14;5.60;82.10
71188;DHT22;58893;53.130;8.158;2023-02-15T01:32:40;5.60;82.10
71188;DHT22;58893;53.130;8.158;2023-02-15T01:35:07;5.60;82.00
71188;DHT22;58893;53.130;8.158;2023-02-15T01:37:33;5.60;82.00
71188;DHT22;58893;53.130;8.158;2023-02-15T01:40:00;5.60;81.90
71188;DHT22;58893;53.130;8.158;2023-02-15T01:42:27;5.60;82.00
71188;DHT22;58893;53.130;8.158;2023-02-15T01:45:02;5.60;82.10
71188;DHT22;58893;53.130;8.158;2023-02-15T01:47:39;5.60;82.40
71188;DHT22;58893;53.130;8.158;2023-02-15T01:55:55;5.50;81.40
71188;DHT22;58893;53.130;8.158;2023-02-15T01:58:25;5.50;81.30
71188;DHT22;58893;53.130;8.158;2023-02-15T02:00:51;5.50;81.10
71188;DHT22;58893;53.130;8.158;2023-02-15T02:03:18;5.40;80.90
71188;DHT22;58893;53.130;8.158;2023-02-15T02:05:47;5.40;81.60
71188;DHT22;58893;53.130;8.158;2023-02-15T02:08:12;5.40;80.90
71188;DHT22;58893;53.130;8.158;2023-02-15T02:10:38;5.40;80.80
71188;DHT22;58893;53.130;8.158;2023-02-15T02:13:06;5.40;80.50
71188;DHT22;58893;53.130;8.158;2023-02-15T02:20:51;5.30;79.90
71188;DHT22;58893;53.130;8.158;2023-02-15T02:23:49;5.30;79.90
71188;DHT22;58893;53.130;8.158;2023-02-15T02:34:16;5.30;80.20
71188;DHT22;58893;53.130;8.158;2023-02-15T02:45:13;5.20;79.90
71188;DHT22;58893;53.130;8.158;2023-02-15T02:50:12;5.20;80.20
71188;DHT22;58893;53.130;8.158;2023-02-15T02:52:45;5.20;80.30
71188;DHT22;58893;53.130;8.158;2023-02-15T02:58:23;5.20;80.30
71188;DHT22;58893;53.130;8.158;2023-02-15T03:00:55;5.20;80.20
71188;DHT22;58893;53.130;8.158;2023-02-15T03:03:45;5.10;80.40
71188;DHT22;58893;53.130;8.158;2023-02-15T03:09:11;5.10;80.40
71188;DHT22;58893;53.130;8.158;2023-02-15T03:11:43;5.10;80.10
71188;DHT22;58893;53.130;8.158;2023-02-15T03:14:10;5.10;80.10
71188;DHT22;58893;53.130;8.158;2023-02-15T03:16:38;5.10;80.30
71188;DHT22;58893;53.130;8.158;2023-02-15T03:19:15;5.10;80.60
71188;DHT22;58893;53.130;8.158;2023-02-15T03:24:13;5.00;81.30
71188;DHT22;58893;53.130;8.158;2023-02-15T03:26:40;5.00;81.30
71188;DHT22;58893;53.130;8.158;2023-02-15T03:29:08;5.00;81.20
71188;DHT22;58893;53.130;8.158;2023-02-15T03:31:38;5.00;81.20
71188;DHT22;58893;53.130;8.158;2023-02-15T03:34:08;5.00;81.50
71188;DHT22;58893;53.130;8.158;2023-02-15T03:36:46;5.00;81.70
71188;DHT22;58893;53.130;8.158;2023-02-15T03:44:49;5.10;86.20
71188;DHT22;58893;53.130;8.158;2023-02-15T03:47:19;5.00;81.90
71188;DHT22;58893;53.130;8.158;2023-02-15T03:52:55;5.00;80.80
71188;DHT22;58893;53.130;8.158;2023-02-15T03:55:21;5.00;80.70
71188;DHT22;58893;53.130;8.158;2023-02-15T03:57:47;5.00;80.60
71188;DHT22;58893;53.130;8.158;2023-02-15T04:00:35;5.00;80.70
71188;DHT22;58893;53.130;8.158;2023-02-15T04:06:02;5.00;80.50
71188;DHT22;58893;53.130;8.158;2023-02-15T04:08:28;5.00;80.30
71188;DHT22;58893;53.130;8.158;2023-02-15T04:11:12;5.00;80.10
71188;DHT22;58893;53.130;8.158;2023-02-15T04:13:38;5.00;80.40
71188;DHT22;58893;53.130;8.158;2023-02-15T04:16:04;4.90;80.40
71188;DHT22;58893;53.130;8.158;2023-02-15T04:18:38;4.90;80.60
71188;DHT22;58893;53.130;8.158;2023-02-15T04:21:24;4.90;81.10
71188;DHT22;58893;53.130;8.158;2023-02-15T04:24:09;4.90;81.70
71188;DHT22;58893;53.130;8.158;2023-02-15T04:26:53;4.90;82.00
71188;DHT22;58893;53.130;8.158;2023-02-15T04:29:20;4.90;82.60
71188;DHT22;58893;53.130;8.158;2023-02-15T04:31:46;4.90;82.60
71188;DHT22;58893;53.130;8.158;2023-02-15T04:34:11;4.90;82.40
71188;DHT22;58893;53.130;8.158;2023-02-15T04:36:38;4.90;82.10
71188;DHT22;58893;53.130;8.158;2023-02-15T04:39:05;4.90;81.90
71188;DHT22;58893;53.130;8.158;2023-02-15T04:41:31;4.90;81.60
71188;DHT22;58893;53.130;8.158;2023-02-15T04:43:56;4.90;81.70
71188;DHT22;58893;53.130;8.158;2023-02-15T04:46:22;4.80;81.70
71188;DHT22;58893;53.130;8.158;2023-02-15T04:48:48;4.80;81.70
71188;DHT22;58893;53.130;8.158;2023-02-15T04:51:14;4.80;82.10
71188;DHT22;58893;53.130;8.158;2023-02-15T04:53:39;4.80;82.10
71188;DHT22;58893;53.130;8.158;2023-02-15T04:56:05;4.80;81.80
71188;DHT22;58893;53.130;8.158;2023-02-15T04:58:31;4.80;81.40
71188;DHT22;58893;53.130;8.158;2023-02-15T05:00:57;4.70;81.30
71188;DHT22;58893;53.130;8.158;2023-02-15T05:03:24;4.70;81.20
71188;DHT22;58893;53.130;8.158;2023-02-15T05:05:50;4.70;81.00
71188;DHT22;58893;53.130;8.158;2023-02-15T05:08:15;4.70;81.00
71188;DHT22;58893;53.130;8.158;2023-02-15T05:10:41;4.70;80.90
71188;DHT22;58893;53.130;8.158;2023-02-15T05:13:07;4.70;80.70
71188;DHT22;58893;53.130;8.158;2023-02-15T05:17:59;4.70;80.10
71188;DHT22;58893;53.130;8.158;2023-02-15T05:20:25;4.70;80.80
71188;DHT22;58893;53.130;8.158;2023-02-15T05:22:53;4.70;80.60
71188;DHT22;58893;53.130;8.158;2023-02-15T05:25:19;4.60;80.00
71188;DHT22;58893;53.130;8.158;2023-02-15T05:28:03;4.60;80.00
71188;DHT22;58893;53.130;8.158;2023-02-15T05:30:51;4.60;79.90
71188;DHT22;58893;53.130;8.158;2023-02-15T05:33:19;4.60;79.90
71188;DHT22;58893;53.130;8.158;2023-02-15T05:35:45;4.60;79.80
71188;DHT22;58893;53.130;8.158;2023-02-15T05:38:12;4.50;80.10
71188;DHT22;58893;53.130;8.158;2023-02-15T05:40:37;4.50;80.10
71188;DHT22;58893;53.130;8.158;2023-02-15T05:43:03;4.50;80.10
71188;DHT22;58893;53.130;8.158;2023-02-15T05:45:28;4.50;80.20
71188;DHT22;58893;53.130;8.158;2023-02-15T05:47:54;4.50;80.20
71188;DHT22;58893;53.130;8.158;2023-02-15T05:50:20;4.50;80.20
71188;DHT22;58893;53.130;8.158;2023-02-15T05:52:46;4.50;80.10
71188;DHT22;58893;53.130;8.158;2023-02-15T05:55:11;4.50;80.00
71188;DHT22;58893;53.130;8.158;2023-02-15T05:57:37;4.50;80.00
71188;DHT22;58893;53.130;8.158;2023-02-15T06:00:04;4.50;80.00
71188;DHT22;58893;53.130;8.158;2023-02-15T06:02:33;4.50;79.80
71188;DHT22;58893;53.130;8.158;2023-02-15T06:04:59;4.40;79.70
71188;DHT22;58893;53.130;8.158;2023-02-15T06:07:24;4.40;79.60
71188;DHT22;58893;53.130;8.158;2023-02-15T06:09:50;4.40;79.60
71188;DHT22;58893;53.130;8.158;2023-02-15T06:12:16;4.40;79.40
71188;DHT22;58893;53.130;8.158;2023-02-15T06:14:41;4.40;79.20
71188;DHT22;58893;53.130;8.158;2023-02-15T06:17:07;4.40;79.00
71188;DHT22;58893;53.130;8.158;2023-02-15T06:19:32;4.40;79.00
71188;DHT22;58893;53.130;8.158;2023-02-15T06:21:58;4.40;79.00
71188;DHT22;58893;53.130;8.158;2023-02-15T06:24:24;4.40;78.80
71188;DHT22;58893;53.130;8.158;2023-02-15T06:26:49;4.30;78.90
71188;DHT22;58893;53.130;8.158;2023-02-15T06:29:15;4.30;79.20
71188;DHT22;58893;53.130;8.158;2023-02-15T06:31:41;4.30;79.40
71188;DHT22;58893;53.130;8.158;2023-02-15T06:34:06;4.30;79.60
71188;DHT22;58893;53.130;8.158;2023-02-15T06:36:32;4.30;79.70
71188;DHT22;58893;53.130;8.158;2023-02-15T06:38:58;4.30;79.90
71188;DHT22;58893;53.130;8.158;2023-02-15T06:41:23;4.30;80.00
71188;DHT22;58893;53.130;8.158;2023-02-15T06:43:49;4.30;79.80
71188;DHT22;58893;53.130;8.158;2023-02-15T06:46:15;4.30;79.70
71188;DHT22;58893;53.130;8.158;2023-02-15T06:48:41;4.30;80.00
71188;DHT22;58893;53.130;8.158;2023-02-15T06:51:07;4.30;80.00
71188;DHT22;58893;53.130;8.158;2023-02-15T06:53:32;4.30;80.10
71188;DHT22;58893;53.130;8.158;2023-02-15T06:56:06;4.30;80.30
71188;DHT22;58893;53.130;8.158;2023-02-15T06:58:38;4.30;80.50
71188;DHT22;58893;53.130;8.158;2023-02-15T07:01:04;4.30;80.60
71188;DHT22;58893;53.130;8.158;2023-02-15T07:03:30;4.30;80.80
71188;DHT22;58893;53.130;8.158;2023-02-15T07:05:57;4.30;81.00
71188;DHT22;58893;53.130;8.158;2023-02-15T07:08:24;4.30;81.00
71188;DHT22;58893;53.130;8.158;2023-02-15T07:10:51;4.30;81.20
71188;DHT22;58893;53.130;8.158;2023-02-15T07:13:17;4.30;80.90
71188;DHT22;58893;53.130;8.158;2023-02-15T07:15:44;4.30;80.70
71188;DHT22;58893;53.130;8.158;2023-02-15T07:18:09;4.30;80.30
71188;DHT22;58893;53.130;8.158;2023-02-15T07:20:37;4.30;80.00
71188;DHT22;58893;53.130;8.158;2023-02-15T07:23:03;4.40;79.80
71188;DHT22;58893;53.130;8.158;2023-02-15T07:25:29;4.40;79.50
71188;DHT22;58893;53.130;8.158;2023-02-15T07:27:57;4.40;80.10
71188;DHT22;58893;53.130;8.158;2023-02-15T07:30:23;4.40;79.30
71188;DHT22;58893;53.130;8.158;2023-02-15T07:32:48;4.40;79.20
71188;DHT22;58893;53.130;8.158;2023-02-15T07:35:33;4.40;79.10
71188;DHT22;58893;53.130;8.158;2023-02-15T07:38:00;4.40;79.10
71188;DHT22;58893;53.130;8.158;2023-02-15T07:40:25;4.40;79.20
71188;DHT22;58893;53.130;8.158;2023-02-15T07:42:51;4.40;79.20
71188;DHT22;58893;53.130;8.158;2023-02-15T07:45:21;4.50;79.30
71188;DHT22;58893;53.130;8.158;2023-02-15T07:47:47;4.50;79.40
71188;DHT22;58893;53.130;8.158;2023-02-15T07:50:13;4.50;79.40
71188;DHT22;58893;53.130;8.158;2023-02-15T07:52:38;4.50;79.60
71188;DHT22;58893;53.130;8.158;2023-02-15T07:55:04;4.50;79.80
71188;DHT22;58893;53.130;8.158;2023-02-15T07:57:30;4.60;80.10
71188;DHT22;58893;53.130;8.158;2023-02-15T07:59:56;4.60;80.20
71188;DHT22;58893;53.130;8.158;2023-02-15T08:02:21;4.60;80.30
71188;DHT22;58893;53.130;8.158;2023-02-15T08:04:47;4.70;80.50
71188;DHT22;58893;53.130;8.158;2023-02-15T08:07:12;4.70;80.80
71188;DHT22;58893;53.130;8.158;2023-02-15T08:09:38;4.80;81.00
71188;DHT22;58893;53.130;8.158;2023-02-15T08:12:04;4.80;85.70
71188;DHT22;58893;53.130;8.158;2023-02-15T08:14:30;4.90;81.20
71188;DHT22;58893;53.130;8.158;2023-02-15T08:16:59;4.90;81.40
71188;DHT22;58893;53.130;8.158;2023-02-15T08:19:29;4.90;83.80
71188;DHT22;58893;53.130;8.158;2023-02-15T08:22:00;5.00;81.90
71188;DHT22;58893;53.130;8.158;2023-02-15T08:24:34;5.10;82.10
71188;DHT22;58893;53.130;8.158;2023-02-15T08:27:00;5.20;82.80
71188;DHT22;58893;53.130;8.158;2023-02-15T08:29:29;5.30;84.10
71188;DHT22;58893;53.130;8.158;2023-02-15T08:32:00;5.60;85.80
71188;DHT22;58893;53.130;8.158;2023-02-15T08:34:28;6.00;86.30
71188;DHT22;58893;53.130;8.158;2023-02-15T08:36:54;6.60;85.30
71188;DHT22;58893;53.130;8.158;2023-02-15T08:39:20;7.10;84.20
71188;DHT22;58893;53.130;8.158;2023-02-15T08:41:46;7.70;82.50
71188;DHT22;58893;53.130;8.158;2023-02-15T08:44:14;8.20;80.20
71188;DHT22;58893;53.130;8.158;2023-02-15T08:46:42;8.80;78.20
71188;DHT22;58893;53.130;8.158;2023-02-15T08:49:09;9.20;76.30
71188;DHT22;58893;53.130;8.158;2023-02-15T08:51:38;9.50;74.90
71188;DHT22;58893;53.130;8.158;2023-02-15T08:54:06;9.60;74.10
71188;DHT22;58893;53.130;8.158;2023-02-15T08:56:37;9.70;73.70
71188;DHT22;58893;53.130;8.158;2023-02-15T08:59:03;9.70;73.90
71188;DHT22;58893;53.130;8.158;2023-02-15T09:01:31;9.70;73.80
71188;DHT22;58893;53.130;8.158;2023-02-15T09:04:07;9.80;73.80
71188;DHT22;58893;53.130;8.158;2023-02-15T09:06:37;9.80;73.40
71188;DHT22;58893;53.130;8.158;2023-02-15T09:09:03;9.80;73.30
71188;DHT22;58893;53.130;8.158;2023-02-15T09:11:35;9.70;73.40
71188;DHT22;58893;53.130;8.158;2023-02-15T09:14:06;9.70;73.70
71188;DHT22;58893;53.130;8.158;2023-02-15T09:16:35;9.60;74.00
71188;DHT22;58893;53.130;8.158;2023-02-15T09:19:01;9.50;74.20
71188;DHT22;58893;53.130;8.158;2023-02-15T09:21:27;9.50;74.60
71188;DHT22;58893;53.130;8.158;2023-02-15T09:24:01;9.40;74.90
71188;DHT22;58893;53.130;8.158;2023-02-15T09:26:29;9.30;75.30
71188;DHT22;58893;53.130;8.158;2023-02-15T09:28:57;9.30;75.80
71188;DHT22;58893;53.130;8.158;2023-02-15T09:31:31;9.20;76.20
71188;DHT22;58893;53.130;8.158;2023-02-15T09:33:59;9.20;77.50
71188;DHT22;58893;53.130;8.158;2023-02-15T09:36:31;9.20;77.40
71188;DHT22;58893;53.130;8.158;2023-02-15T09:44:24;9.10;79.00
71188;DHT22;58893;53.130;8.158;2023-02-15T09:46:56;9.20;79.80
71188;DHT22;58893;53.130;8.158;2023-02-15T10:05:52;9.50;81.50
71188;DHT22;58893;53.130;8.158;2023-02-15T10:17:29;9.70;81.60
71188;DHT22;58893;53.130;8.158;2023-02-15T10:26:20;9.90;81.60
71188;DHT22;58893;53.130;8.158;2023-02-15T10:34:05;10.00;81.00
71188;DHT22;58893;53.130;8.158;2023-02-15T10:36:53;10.10;81.20
71188;DHT22;58893;53.130;8.158;2023-02-15T10:50:35;10.40;81.00
71188;DHT22;58893;53.130;8.158;2023-02-15T10:59:23;10.60;80.90
71188;DHT22;58893;53.130;8.158;2023-02-15T11:02:30;10.70;80.80
71188;DHT22;58893;53.130;8.158;2023-02-15T11:08:04;10.70;81.10
71188;DHT22;58893;53.130;8.158;2023-02-15T11:13:12;10.80;81.00
71188;DHT22;58893;53.130;8.158;2023-02-15T11:15:44;10.80;80.80
71188;DHT22;58893;53.130;8.158;2023-02-15T11:21:09;10.80;80.10
71188;DHT22;58893;53.130;8.158;2023-02-15T11:23:42;10.80;80.00
71188;DHT22;58893;53.130;8.158;2023-02-15T11:26:29;10.80;79.80
71188;DHT22;58893;53.130;8.158;2023-02-15T11:29:02;10.80;79.60
71188;DHT22;58893;53.130;8.158;2023-02-15T11:36:54;10.80;79.60
71188;DHT22;58893;53.130;8.158;2023-02-15T11:39:21;10.80;79.80
71188;DHT22;58893;53.130;8.158;2023-02-15T11:41:52;10.80;80.00
71188;DHT22;58893;53.130;8.158;2023-02-15T11:44:27;10.80;80.20
71188;DHT22;58893;53.130;8.158;2023-02-15T11:46:56;10.80;80.40
71188;DHT22;58893;53.130;8.158;2023-02-15T11:49:23;10.70;80.40
71188;DHT22;58893;53.130;8.158;2023-02-15T11:51:50;10.70;80.30
71188;DHT22;58893;53.130;8.158;2023-02-15T11:54:18;10.70;80.20
71188;DHT22;58893;53.130;8.158;2023-02-15T11:56:45;10.70;80.20
71188;DHT22;58893;53.130;8.158;2023-02-15T11:59:17;10.70;80.40
71188;DHT22;58893;53.130;8.158;2023-02-15T12:01:45;10.70;80.60
71188;DHT22;58893;53.130;8.158;2023-02-15T12:06:54;10.80;80.90
71188;DHT22;58893;53.130;8.158;2023-02-15T12:11:50;10.80;81.30
71188;DHT22;58893;53.130;8.158;2023-02-15T12:14:15;10.80;81.40
71188;DHT22;58893;53.130;8.158;2023-02-15T12:16:49;10.80;81.50
71188;DHT22;58893;53.130;8.158;2023-02-15T12:21:50;10.90;81.50
71188;DHT22;58893;53.130;8.158;2023-02-15T12:24:27;10.90;81.60
71188;DHT22;58893;53.130;8.158;2023-02-15T12:29:30;11.00;81.90
71188;DHT22;58893;53.130;8.158;2023-02-15T12:31:58;11.00;82.00
71188;DHT22;58893;53.130;8.158;2023-02-15T12:34:33;11.10;82.30
71188;DHT22;58893;53.130;8.158;2023-02-15T12:37:14;11.10;82.30
71188;DHT22;58893;53.130;8.158;2023-02-15T12:39:54;11.10;82.10
71188;DHT22;58893;53.130;8.158;2023-02-15T12:42:21;11.20;82.30
71188;DHT22;58893;53.130;8.158;2023-02-15T12:45:00;11.30;82.10
71188;DHT22;58893;53.130;8.158;2023-02-15T12:47:27;11.30;81.80
71188;DHT22;58893;53.130;8.158;2023-02-15T12:50:24;11.40;81.30
71188;DHT22;58893;53.130;8.158;2023-02-15T12:53:19;11.40;81.00
71188;DHT22;58893;53.130;8.158;2023-02-15T12:56:00;11.40;80.70
71188;DHT22;58893;53.130;8.158;2023-02-15T12:58:31;11.50;80.60
71188;DHT22;58893;53.130;8.158;2023-02-15T13:01:17;11.50;80.60
71188;DHT22;58893;53.130;8.158;2023-02-15T13:04:03;11.50;80.50
71188;DHT22;58893;53.130;8.158;2023-02-15T13:06:32;11.60;80.20
71188;DHT22;58893;53.130;8.158;2023-02-15T13:09:19;11.60;79.90
71188;DHT22;58893;53.130;8.158;2023-02-15T13:11:46;11.60;79.80
71188;DHT22;58893;53.130;8.158;2023-02-15T13:14:16;11.60;79.50
71188;DHT22;58893;53.130;8.158;2023-02-15T13:16:44;11.60;79.40
71188;DHT22;58893;53.130;8.158;2023-02-15T13:21:52;11.60;79.80
71188;DHT22;58893;53.130;8.158;2023-02-15T13:26:57;11.70;80.00
71188;DHT22;58893;53.130;8.158;2023-02-15T13:29:28;11.70;79.90
71188;DHT22;58893;53.130;8.158;2023-02-15T13:31:57;11.70;80.20
71188;DHT22;58893;53.130;8.158;2023-02-15T13:34:30;11.70;80.20
71188;DHT22;58893;53.130;8.158;2023-02-15T13:42:59;11.80;80.50
71188;DHT22;58893;53.130;8.158;2023-02-15T13:45:36;11.80;80.40
71188;DHT22;58893;53.130;8.158;2023-02-15T13:49:02;11.90;80.50
71188;DHT22;58893;53.130;8.158;2023-02-15T14:04:27;11.90;77.90
71188;DHT22;58893;53.130;8.158;2023-02-15T14:24:00;11.90;76.90
71188;DHT22;58893;53.130;8.158;2023-02-15T14:32:03;11.90;76.70
71188;DHT22;58893;53.130;8.158;2023-02-15T14:37:22;11.90;76.90
71188;DHT22;58893;53.130;8.158;2023-02-15T14:39:58;11.80;77.10
71188;DHT22;58893;53.130;8.158;2023-02-15T14:42:57;11.80;77.30
71188;DHT22;58893;53.130;8.158;2023-02-15T14:45:58;11.80;77.60
71188;DHT22;58893;53.130;8.158;2023-02-15T14:48:31;11.80;77.80
71188;DHT22;58893;53.130;8.158;2023-02-15T14:50:57;11.80;77.90
71188;DHT22;58893;53.130;8.158;2023-02-15T14:56:17;11.80;77.70
71188;DHT22;58893;53.130;8.158;2023-02-15T15:01:25;11.80;78.20
71188;DHT22;58893;53.130;8.158;2023-02-15T15:03:54;11.80;78.30
71188;DHT22;58893;53.130;8.158;2023-02-15T15:06:30;11.80;78.20
71188;DHT22;58893;53.130;8.158;2023-02-15T15:09:05;11.80;78.20
71188;DHT22;58893;53.130;8.158;2023-02-15T15:11:46;11.80;78.20
71188;DHT22;58893;53.130;8.158;2023-02-15T15:17:01;11.80;78.20
71188;DHT22;58893;53.130;8.158;2023-02-15T15:22:25;11.80;78.00
71188;DHT22;58893;53.130;8.158;2023-02-15T15:25:03;11.70;77.80
71188;DHT22;58893;53.130;8.158;2023-02-15T15:27:52;11.70;77.90
71188;DHT22;58893;53.130;8.158;2023-02-15T15:44:01;11.70;78.10
71188;DHT22;58893;53.130;8.158;2023-02-15T15:46:56;11.60;78.20
71188;DHT22;58893;53.130;8.158;2023-02-15T15:49:31;11.60;78.30
71188;DHT22;58893;53.130;8.158;2023-02-15T15:52:01;11.60;78.40
71188;DHT22;58893;53.130;8.158;2023-02-15T15:54:28;11.50;78.40
71188;DHT22;58893;53.130;8.158;2023-02-15T15:57:00;11.50;78.50
71188;DHT22;58893;53.130;8.158;2023-02-15T15:59:29;11.50;79.00
71188;DHT22;58893;53.130;8.158;2023-02-15T16:01:56;11.50;78.60
71188;DHT22;58893;53.130;8.158;2023-02-15T16:04:28;11.40;78.60
71188;DHT22;58893;53.130;8.158;2023-02-15T16:06:56;11.40;78.70
71188;DHT22;58893;53.130;8.158;2023-02-15T16:09:27;11.40;78.80
71188;DHT22;58893;53.130;8.158;2023-02-15T16:11:57;11.40;78.90
71188;DHT22;58893;53.130;8.158;2023-02-15T16:14:29;11.30;78.80
71188;DHT22;58893;53.130;8.158;2023-02-15T16:16:58;11.30;78.90
71188;DHT22;58893;53.130;8.158;2023-02-15T16:19:28;11.30;79.00
71188;DHT22;58893;53.130;8.158;2023-02-15T16:21:58;11.30;79.20
71188;DHT22;58893;53.130;8.158;2023-02-15T16:24:52;11.20;79.10
71188;DHT22;58893;53.130;8.158;2023-02-15T16:27:45;11.20;79.30
71188;DHT22;58893;53.130;8.158;2023-02-15T16:35:28;11.10;79.40
71188;DHT22;58893;53.130;8.158;2023-02-15T16:37:53;11.10;79.50
71188;DHT22;58893;53.130;8.158;2023-02-15T16:42:55;11.00;81.80
71188;DHT22;58893;53.130;8.158;2023-02-15T16:45:24;11.00;79.70
71188;DHT22;58893;53.130;8.158;2023-02-15T16:47:55;11.00;79.80
71188;DHT22;58893;53.130;8.158;2023-02-15T16:50:35;10.90;79.70
71188;DHT22;58893;53.130;8.158;2023-02-15T16:53:02;10.90;79.80
71188;DHT22;58893;53.130;8.158;2023-02-15T16:55:34;10.90;79.80
71188;DHT22;58893;53.130;8.158;2023-02-15T16:58:02;10.90;79.90
71188;DHT22;58893;53.130;8.158;2023-02-15T17:00:33;10.80;79.80
71188;DHT22;58893;53.130;8.158;2023-02-15T17:05:46;10.80;79.90
71188;DHT22;58893;53.130;8.158;2023-02-15T17:10:44;10.80;80.10
71188;DHT22;58893;53.130;8.158;2023-02-15T17:13:14;10.70;80.00
71188;DHT22;58893;53.130;8.158;2023-02-15T17:15:43;10.70;80.00
71188;DHT22;58893;53.130;8.158;2023-02-15T17:18:14;10.70;80.10
71188;DHT22;58893;53.130;8.158;2023-02-15T17:20:42;10.70;80.10
71188;DHT22;58893;53.130;8.158;2023-02-15T17:23:40;10.70;80.10
71188;DHT22;58893;53.130;8.158;2023-02-15T17:28:52;10.60;79.60
71188;DHT22;58893;53.130;8.158;2023-02-15T17:31:19;10.60;80.20
71188;DHT22;58893;53.130;8.158;2023-02-15T17:33:46;10.50;80.20
71188;DHT22;58893;53.130;8.158;2023-02-15T17:36:20;10.50;80.30
71188;DHT22;58893;53.130;8.158;2023-02-15T17:41:26;10.50;80.30
71188;DHT22;58893;53.130;8.158;2023-02-15T17:43:52;10.50;80.30
71188;DHT22;58893;53.130;8.158;2023-02-15T17:46:18;10.40;80.30
71188;DHT22;58893;53.130;8.158;2023-02-15T17:48:48;10.40;80.40
71188;DHT22;58893;53.130;8.158;2023-02-15T17:51:15;10.40;80.50
71188;DHT22;58893;53.130;8.158;2023-02-15T17:53:42;10.40;80.50
71188;DHT22;58893;53.130;8.158;2023-02-15T17:56:26;10.30;80.40
71188;DHT22;58893;53.130;8.158;2023-02-15T17:58:52;10.30;80.40
71188;DHT22;58893;53.130;8.158;2023-02-15T18:01:19;10.30;80.50
71188;DHT22;58893;53.130;8.158;2023-02-15T18:04:04;10.20;80.40
71188;DHT22;58893;53.130;8.158;2023-02-15T18:06:50;10.20;80.60
71188;DHT22;58893;53.130;8.158;2023-02-15T18:09:35;10.20;80.70
71188;DHT22;58893;53.130;8.158;2023-02-15T18:12:29;10.10;80.70
71188;DHT22;58893;53.130;8.158;2023-02-15T18:14:57;10.10;80.80
71188;DHT22;58893;53.130;8.158;2023-02-15T18:17:29;10.00;81.60
71188;DHT22;58893;53.130;8.158;2023-02-15T18:19:56;10.00;80.90
71188;DHT22;58893;53.130;8.158;2023-02-15T18:22:22;10.00;81.00
71188;DHT22;58893;53.130;8.158;2023-02-15T18:24:48;9.90;82.10
71188;DHT22;58893;53.130;8.158;2023-02-15T18:27:15;9.90;82.10
71188;DHT22;58893;53.130;8.158;2023-02-15T18:29:41;9.80;82.10
71188;DHT22;58893;53.130;8.158;2023-02-15T18:32:31;9.80;82.30
71188;DHT22;58893;53.130;8.158;2023-02-15T18:34:56;9.80;82.40
71188;DHT22;58893;53.130;8.158;2023-02-15T18:37:30;9.80;82.50
71188;DHT22;58893;53.130;8.158;2023-02-15T18:39:58;9.80;82.60
71188;DHT22;58893;53.130;8.158;2023-02-15T18:42:27;9.70;82.60
71188;DHT22;58893;53.130;8.158;2023-02-15T18:44:55;9.70;82.60
71188;DHT22;58893;53.130;8.158;2023-02-15T18:47:22;9.70;82.60
71188;DHT22;58893;53.130;8.158;2023-02-15T18:49:48;9.70;82.70
71188;DHT22;58893;53.130;8.158;2023-02-15T18:52:16;9.60;82.70
71188;DHT22;58893;53.130;8.158;2023-02-15T18:54:43;9.60;82.80
71188;DHT22;58893;53.130;8.158;2023-02-15T18:57:12;9.60;82.80
71188;DHT22;58893;53.130;8.158;2023-02-15T18:59:39;9.60;82.70
71188;DHT22;58893;53.130;8.158;2023-02-15T19:02:14;9.50;82.50
71188;DHT22;58893;53.130;8.158;2023-02-15T19:04:42;9.50;83.20
71188;DHT22;58893;53.130;8.158;2023-02-15T19:07:22;9.50;82.50
71188;DHT22;58893;53.130;8.158;2023-02-15T19:09:53;9.40;82.50
71188;DHT22;58893;53.130;8.158;2023-02-15T19:12:20;9.40;82.50
71188;DHT22;58893;53.130;8.158;2023-02-15T19:14:46;9.30;82.40
71188;DHT22;58893;53.130;8.158;2023-02-15T19:17:17;9.30;82.50
71188;DHT22;58893;53.130;8.158;2023-02-15T19:19:44;9.30;82.50
71188;DHT22;58893;53.130;8.158;2023-02-15T19:22:25;9.30;82.50
71188;DHT22;58893;53.130;8.158;2023-02-15T19:24:52;9.20;82.50
71188;DHT22;58893;53.130;8.158;2023-02-15T19:27:27;9.20;82.60
71188;DHT22;58893;53.130;8.158;2023-02-15T19:29:56;9.20;82.60
71188;DHT22;58893;53.130;8.158;2023-02-15T19:32:22;9.20;82.60
71188;DHT22;58893;53.130;8.158;2023-02-15T19:34:48;9.10;82.60
71188;DHT22;58893;53.130;8.158;2023-02-15T19:37:40;9.10;82.80
71188;DHT22;58893;53.130;8.158;2023-02-15T19:40:17;9.10;82.90
71188;DHT22;58893;53.130;8.158;2023-02-15T19:42:43;9.10;83.00
71188;DHT22;58893;53.130;8.158;2023-02-15T19:45:16;9.00;82.90
71188;DHT22;58893;53.130;8.158;2023-02-15T19:47:43;9.00;82.80
71188;DHT22;58893;53.130;8.158;2023-02-15T19:50:19;9.00;82.80